EGLS weather

Old Sarum Airfield
Salisbury, England, United Kingdom

Public forecast

Using degrees Celsius for public forecast. Weather courtesy of forecast.io.

METAR (pilot weather report)

Closest report is MoD Boscombe Down Airport, 3.5 nm (6.5 km) NNE. Retrieved 2019/04/25 09:50 UTC (27 minutes ago):

EGDM 250950Z 18017KT 9999 FEW018 12/08 Q0996 BLU NOSIG

TAF (pilot weather forecast)

Forecast is more than 12 hours old.

Closest forecast is MoD Boscombe Down Airport, 3.5 nm (6.5 km) NNE. Retrieved 2010/11/20 06:11 UTC (8 years ago):

TAF EGDM 200503Z 2006/2024 08010KT 4000 BR SCT006 BKN010 TEMPO 2006/2009 3000 -RADZ BKN003 BECMG 2009/2012 7000 HZ BKN012 TEMPO 2012/2015 9999 NSW BKN015